Terminal Aerodrome Forecast
Issued by NWS

Home | Current Version | Previous Version | Text Only | Print | Product List | Glossary On
Versions: 1 2 3 4 5 6 7 8 9 10 11 12 13 14 15 16 17 18
318
FTUS43 KDLH 080415 AAB
TAFBRD
TAF AMD
KBRD 080415Z 0804/0824 28011KT 6SM HZ SCT018 OVC050
     FM080900 31014G20KT 5SM -SN BLSN OVC020
     FM081400 32014G21KT P6SM VCSH OVC025
     FM082100 33010KT P6SM OVC015=

USA.gov is the U.S. government's official web portal to all federal, state and local government web resources and services.